createdAt,value
2023-03-24T00:01:10.527Z,100206.00
2023-03-24T00:03:38.746Z,100215.41
2023-03-24T00:06:09.341Z,100236.06
2023-03-24T00:08:38.567Z,100256.47
2023-03-24T00:11:08.862Z,100254.72
2023-03-24T00:13:39.183Z,100261.66
2023-03-24T00:16:08.228Z,100273.13
2023-03-24T00:18:37.033Z,100276.34
2023-03-24T00:21:05.609Z,100270.34
2023-03-24T00:23:34.155Z,100270.94
2023-03-24T00:26:03.763Z,100260.81
2023-03-24T00:28:33.349Z,100247.53
2023-03-24T00:31:03.292Z,100241.38
2023-03-24T00:33:32.969Z,100227.88
2023-03-24T00:36:01.798Z,100219.13
2023-03-24T00:38:29.790Z,100230.91
2023-03-24T00:40:58.866Z,100218.25
2023-03-24T00:43:27.266Z,100200.72
2023-03-24T00:46:01.819Z,100186.47
2023-03-24T00:48:31.412Z,100132.63
2023-03-24T00:50:59.342Z,100120.78
2023-03-24T00:53:29.558Z,100123.53
2023-03-24T00:55:58.518Z,100107.22
2023-03-24T00:58:29.925Z,100093.31
2023-03-24T01:00:59.148Z,100095.78
2023-03-24T01:03:28.127Z,100090.63
2023-03-24T01:06:03.141Z,100046.19
2023-03-24T01:08:32.266Z,100048.44
2023-03-24T01:11:01.600Z,99975.06
2023-03-24T01:13:30.935Z,99966.84
2023-03-24T01:15:59.078Z,99934.69
2023-03-24T01:18:27.744Z,99947.84
2023-03-24T01:20:58.304Z,99962.78
2023-03-24T01:23:26.899Z,99956.78
2023-03-24T01:25:55.404Z,99967.47
2023-03-24T01:28:27.223Z,99923.63
2023-03-24T01:30:55.446Z,100009.59
2023-03-24T01:33:23.468Z,100031.19
2023-03-24T01:35:51.540Z,100027.28
2023-03-24T01:38:20.819Z,100022.53
2023-03-24T01:40:49.063Z,100015.50
2023-03-24T01:43:19.836Z,100026.06
2023-03-24T01:46:01.832Z,100111.78
2023-03-24T01:48:34.718Z,100139.28
2023-03-24T01:51:06.582Z,100158.50
2023-03-24T01:53:39.733Z,100175.97
2023-03-24T01:56:09.467Z,100182.38
2023-03-24T01:58:48.292Z,100186.50
2023-03-24T02:01:22.064Z,100180.06
2023-03-24T02:04:25.870Z,100237.84
2023-03-24T02:07:00.173Z,100291.44
2023-03-24T02:09:29.538Z,100323.69
2023-03-24T02:11:57.704Z,100360.84
2023-03-24T02:14:25.748Z,100374.38
2023-03-24T02:17:11.394Z,100421.28
2023-03-24T02:20:09.417Z,100503.56
2023-03-24T02:23:28.217Z,100613.66
2023-03-24T02:26:24.935Z,100777.34
2023-03-24T02:29:03.585Z,100917.78
2023-03-24T02:31:59.039Z,101071.03
2023-03-24T02:34:47.619Z,101197.59
2023-03-24T02:37:51.327Z,101269.81
2023-03-24T02:40:35.038Z,101346.69
2023-03-24T02:43:19.249Z,101376.72
2023-03-24T02:46:03.491Z,101436.34
2023-03-24T02:48:38.432Z,101489.13
2023-03-24T02:51:12.963Z,101517.31
2023-03-24T02:53:50.881Z,101563.06
2023-03-24T02:56:32.990Z,101559.22
2023-03-24T02:59:18.014Z,101538.06
2023-03-24T03:01:54.230Z,101529.03
2023-03-24T03:04:50.043Z,101534.66
2023-03-24T03:07:22.808Z,101522.63
2023-03-24T03:09:59.002Z,101470.44
2023-03-24T03:12:33.957Z,101409.75
2023-03-24T03:15:07.798Z,101354.38
2023-03-24T03:17:39.848Z,101293.09
2023-03-24T03:20:13.533Z,101176.69
2023-03-24T03:22:49.795Z,101025.50
2023-03-24T03:25:22.791Z,100866.28
2023-03-24T03:27:54.927Z,100685.44
2023-03-24T03:30:27.763Z,100489.47
2023-03-24T03:33:02.446Z,100344.22
2023-03-24T03:35:34.837Z,100155.59
2023-03-24T03:38:15.673Z,99974.13
2023-03-24T03:40:50.914Z,99795.28
2023-03-24T03:43:24.048Z,99585.50
2023-03-24T03:45:51.855Z,99407.94
2023-03-24T03:48:26.448Z,99244.19
2023-03-24T03:51:06.291Z,99074.69
2023-03-24T03:53:46.246Z,98955.34
2023-03-24T03:56:18.279Z,98885.84
2023-03-24T03:58:58.203Z,98845.25
2023-03-24T04:01:30.923Z,98836.44
2023-03-24T04:05:05.743Z,98810.72
2023-03-24T04:08:29.787Z,98838.44
2023-03-24T04:11:31.279Z,98867.19
2023-03-24T04:14:42.676Z,98933.53
2023-03-24T04:17:47.713Z,98975.72
2023-03-24T04:20:38.250Z,98999.00
2023-03-24T04:23:14.888Z,99012.81
2023-03-24T04:25:56.652Z,99034.53
2023-03-24T04:28:32.041Z,99067.00
2023-03-24T04:31:07.357Z,99097.81
2023-03-24T04:33:45.592Z,99141.22
2023-03-24T04:36:19.182Z,99190.06
2023-03-24T04:39:07.143Z,99217.50
2023-03-24T04:41:47.326Z,99240.03
2023-03-24T04:44:23.852Z,99244.72
2023-03-24T04:47:13.550Z,99252.13
2023-03-24T04:49:49.869Z,99260.94
2023-03-24T04:52:18.172Z,99272.34
2023-03-24T04:54:46.559Z,99253.13
2023-03-24T04:57:14.402Z,99259.81
2023-03-24T04:59:46.239Z,99257.00
2023-03-24T05:02:16.858Z,99224.22
2023-03-24T05:04:59.005Z,99176.38
2023-03-24T05:07:36.018Z,99131.72
2023-03-24T05:10:09.161Z,99075.78
2023-03-24T05:12:44.565Z,99006.78
2023-03-24T05:15:21.402Z,98964.38
2023-03-24T05:17:56.866Z,98909.78
2023-03-24T05:20:27.066Z,98897.16
2023-03-24T05:22:57.873Z,99024.19
2023-03-24T05:25:26.547Z,99041.28
2023-03-24T05:27:54.385Z,99067.44
2023-03-24T05:30:25.494Z,99112.84
2023-03-24T05:33:01.547Z,99151.50
2023-03-24T05:35:29.622Z,99168.00
2023-03-24T05:37:57.959Z,99195.13
2023-03-24T05:40:26.513Z,99228.44
2023-03-24T05:42:58.587Z,99234.94
2023-03-24T05:45:31.710Z,99279.34
2023-03-24T05:48:03.298Z,99292.94
2023-03-24T05:50:48.567Z,99326.28
2023-03-24T05:53:16.485Z,99359.19
2023-03-24T05:56:12.126Z,99406.75
2023-03-24T05:59:01.545Z,99422.75
2023-03-24T06:01:56.958Z,99453.03
2023-03-24T06:04:38.309Z,99490.81
2023-03-24T06:07:14.285Z,99522.78
2023-03-24T06:09:47.575Z,99541.25
2023-03-24T06:12:17.011Z,99575.63
2023-03-24T06:14:54.421Z,99599.69
2023-03-24T06:17:24.476Z,99616.50
2023-03-24T06:20:05.883Z,99624.84
2023-03-24T06:22:36.635Z,99621.06
2023-03-24T06:25:09.965Z,99628.00
2023-03-24T06:27:38.745Z,99636.13
2023-03-24T06:30:08.619Z,99644.72
2023-03-24T06:32:38.214Z,99657.97
2023-03-24T06:35:08.849Z,99661.41
2023-03-24T06:37:44.762Z,99656.75
2023-03-24T06:40:17.630Z,99670.75
2023-03-24T06:42:56.445Z,99683.09
2023-03-24T06:45:24.381Z,99692.94
2023-03-24T06:47:55.681Z,99703.47
2023-03-24T06:50:26.944Z,99700.78
2023-03-24T06:52:55.922Z,99723.97
2023-03-24T06:55:25.111Z,99736.56
2023-03-24T06:57:54.706Z,99769.47
2023-03-24T07:00:41.442Z,99791.97
2023-03-24T07:03:28.415Z,99827.22
2023-03-24T07:06:16.538Z,99855.56
2023-03-24T07:08:46.091Z,99869.09
2023-03-24T07:11:14.667Z,99874.97
2023-03-24T07:13:51.426Z,99877.38
2023-03-24T07:16:19.425Z,99898.97
2023-03-24T07:18:51.284Z,99910.38
2023-03-24T07:21:20.826Z,99920.19
2023-03-24T07:23:51.438Z,99924.59
2023-03-24T07:26:22.897Z,99936.22
2023-03-24T07:29:13.729Z,99944.88
2023-03-24T07:32:01.896Z,99960.00
2023-03-24T07:34:29.987Z,99972.44
2023-03-24T07:37:01.745Z,99990.69
2023-03-24T07:39:31.128Z,99992.31
2023-03-24T07:41:59.108Z,99993.84
2023-03-24T07:45:05.769Z,99992.19
2023-03-24T07:47:33.796Z,99992.69
2023-03-24T07:50:04.006Z,99995.53
2023-03-24T07:52:33.595Z,100005.09
2023-03-24T07:55:01.619Z,100016.03
2023-03-24T07:57:55.672Z,100007.69
2023-03-24T08:00:25.693Z,100030.34
2023-03-24T08:03:05.803Z,100022.72
2023-03-24T08:05:53.056Z,100028.16
2023-03-24T08:08:33.042Z,100044.84
2023-03-24T08:11:01.249Z,100051.22
2023-03-24T08:13:29.074Z,100057.09
2023-03-24T08:15:57.007Z,100057.38
2023-03-24T08:18:25.988Z,100075.47
2023-03-24T08:20:58.032Z,100076.97
2023-03-24T08:23:25.846Z,100088.91
2023-03-24T08:25:55.064Z,100088.16
2023-03-24T08:28:23.033Z,100082.88
2023-03-24T08:30:51.225Z,100081.97
2023-03-24T08:33:19.242Z,100081.25
2023-03-24T08:35:47.782Z,100075.34
2023-03-24T08:38:18.274Z,100079.91
2023-03-24T08:40:48.910Z,100078.94
2023-03-24T08:43:20.038Z,100083.88
2023-03-24T08:45:48.038Z,100088.88
2023-03-24T08:48:16.098Z,100076.09
2023-03-24T08:50:44.623Z,100086.19
2023-03-24T08:53:12.852Z,100072.84
2023-03-24T08:55:43.786Z,100077.00
2023-03-24T08:58:15.169Z,100084.41
2023-03-24T09:00:46.216Z,100079.53
2023-03-24T09:03:18.340Z,100093.53
2023-03-24T09:05:47.672Z,100104.59
2023-03-24T09:08:17.777Z,100098.69
2023-03-24T09:10:47.554Z,100102.41
2023-03-24T09:13:15.889Z,100111.38
2023-03-24T09:15:48.959Z,100105.72
2023-03-24T09:18:17.198Z,100108.56
2023-03-24T09:20:46.128Z,100112.47
2023-03-24T09:23:14.243Z,100115.88
2023-03-24T09:25:42.493Z,100116.38
2023-03-24T09:28:10.757Z,100119.69
2023-03-24T09:30:38.538Z,100122.41
2023-03-24T09:33:07.941Z,100116.63
2023-03-24T09:35:35.846Z,100120.50
2023-03-24T09:38:03.691Z,100126.63
2023-03-24T09:40:34.085Z,100128.91
2023-03-24T09:43:05.294Z,100133.06
2023-03-24T09:45:37.043Z,100127.59
2023-03-24T09:48:11.994Z,100136.84
2023-03-24T09:50:44.436Z,100144.00
2023-03-24T09:53:28.140Z,100146.69
2023-03-24T09:55:56.495Z,100142.00
2023-03-24T09:58:30.906Z,100139.78
2023-03-24T10:00:58.737Z,100149.13
2023-03-24T10:03:28.522Z,100147.75
2023-03-24T10:06:01.916Z,100147.41
2023-03-24T10:08:36.746Z,100150.59
2023-03-24T10:11:09.739Z,100155.66
2023-03-24T10:13:53.434Z,100156.50
2023-03-24T10:16:27.930Z,100163.59
2023-03-24T10:19:06.132Z,100171.44
2023-03-24T10:21:39.308Z,100188.25
2023-03-24T10:24:12.978Z,100176.69
2023-03-24T10:26:46.544Z,100190.72
2023-03-24T10:29:26.233Z,100186.31
2023-03-24T10:31:59.737Z,100196.03
2023-03-24T10:34:31.334Z,100191.00
2023-03-24T10:37:02.174Z,100192.34
2023-03-24T10:39:41.945Z,100186.91
2023-03-24T10:42:18.768Z,100190.25
2023-03-24T10:44:48.070Z,100187.41
2023-03-24T10:47:20.042Z,100189.88
2023-03-24T10:49:56.837Z,100198.38
2023-03-24T10:52:25.595Z,100199.59
2023-03-24T10:54:58.601Z,100198.63
2023-03-24T10:57:28.706Z,100203.53
2023-03-24T10:59:59.943Z,100200.44
2023-03-24T11:02:31.755Z,100198.81
2023-03-24T11:05:03.711Z,100194.59
2023-03-24T11:07:37.841Z,100195.69
2023-03-24T11:10:15.608Z,100185.56
2023-03-24T11:12:45.490Z,100183.13
2023-03-24T11:15:21.848Z,100193.81
2023-03-24T11:17:56.474Z,100193.31
2023-03-24T11:20:32.453Z,100191.06
2023-03-24T11:23:03.547Z,100187.63
2023-03-24T11:25:34.369Z,100187.78
2023-03-24T11:28:04.934Z,100192.66
2023-03-24T11:30:36.748Z,100188.06
2023-03-24T11:33:07.247Z,100188.59
2023-03-24T11:35:42.675Z,100186.38
2023-03-24T11:38:18.136Z,100182.81
2023-03-24T11:40:58.341Z,100191.88
2023-03-24T11:43:27.227Z,100193.97
2023-03-24T11:46:01.884Z,100199.81
2023-03-24T11:48:40.441Z,100197.38
2023-03-24T11:51:15.064Z,100201.47
2023-03-24T11:53:48.890Z,100195.84
2023-03-24T11:56:26.172Z,100203.66
2023-03-24T11:59:00.376Z,100184.28
2023-03-24T12:01:33.019Z,100190.22
2023-03-24T12:04:16.440Z,100204.00
2023-03-24T12:06:58.273Z,100189.16
2023-03-24T12:09:32.800Z,100180.47
2023-03-24T12:12:21.140Z,100177.38
2023-03-24T12:15:02.996Z,100175.59
2023-03-24T12:17:37.364Z,100174.63
2023-03-24T12:20:17.146Z,100167.91
2023-03-24T12:22:56.774Z,100161.88
2023-03-24T12:25:33.816Z,100163.13
2023-03-24T12:28:24.059Z,100153.31
2023-03-24T12:31:04.618Z,100157.53
2023-03-24T12:33:44.964Z,100163.28
2023-03-24T12:36:31.881Z,100156.19
2023-03-24T12:39:09.621Z,100155.84
2023-03-24T12:42:10.523Z,100166.84
2023-03-24T12:44:58.506Z,100152.81
2023-03-24T12:47:42.553Z,100142.44
2023-03-24T12:50:22.493Z,100147.34
2023-03-24T12:53:08.410Z,100147.75
2023-03-24T12:55:44.375Z,100143.34
2023-03-24T12:58:19.334Z,100124.28
2023-03-24T13:01:01.282Z,100145.44
2023-03-24T13:03:35.104Z,100148.28
2023-03-24T13:06:17.473Z,100145.78
2023-03-24T13:08:53.854Z,100139.84
2023-03-24T13:11:35.168Z,100154.00
2023-03-24T13:14:06.304Z,100157.53
2023-03-24T13:16:37.897Z,100139.94
2023-03-24T13:19:15.702Z,100147.31
2023-03-24T13:21:45.626Z,100139.06
2023-03-24T13:24:15.493Z,100145.84
2023-03-24T13:26:51.492Z,100152.03
2023-03-24T13:29:41.844Z,100158.72
2023-03-24T13:32:25.576Z,100168.31
2023-03-24T13:34:59.102Z,100180.38
2023-03-24T13:37:33.371Z,100167.34
2023-03-24T13:40:06.772Z,100160.34
2023-03-24T13:42:38.754Z,100166.63
2023-03-24T13:45:08.483Z,100166.09
2023-03-24T13:47:50.612Z,100152.63
2023-03-24T13:50:19.248Z,100160.91
2023-03-24T13:52:49.744Z,100159.44
2023-03-24T13:55:24.880Z,100151.69
2023-03-24T13:57:58.053Z,100146.56
2023-03-24T14:00:28.069Z,100139.19
2023-03-24T14:02:58.327Z,100129.59
2023-03-24T14:05:35.089Z,100137.28
2023-03-24T14:08:17.964Z,100135.63
2023-03-24T14:10:48.536Z,100167.25
2023-03-24T14:13:38.982Z,100154.91
2023-03-24T14:16:36.962Z,100160.47
2023-03-24T14:19:27.038Z,100186.56
2023-03-24T14:22:04.533Z,100147.94
2023-03-24T14:24:32.995Z,100153.50
2023-03-24T14:27:01.378Z,100156.56
2023-03-24T14:29:51.089Z,100166.16
2023-03-24T14:32:22.877Z,100158.53
2023-03-24T14:34:54.137Z,100156.31
2023-03-24T14:37:23.153Z,100171.53
2023-03-24T14:39:52.312Z,100186.03
2023-03-24T14:42:57.201Z,100208.47
2023-03-24T14:45:52.554Z,100196.19
2023-03-24T14:48:38.048Z,100180.53
2023-03-24T14:51:37.413Z,100186.19
2023-03-24T14:54:08.508Z,100190.88
2023-03-24T14:56:41.888Z,100185.84
2023-03-24T14:59:19.014Z,100200.00
2023-03-24T15:01:51.113Z,100201.44
2023-03-24T15:04:19.063Z,100205.06
2023-03-24T15:06:48.116Z,100195.31
2023-03-24T15:09:17.613Z,100194.69
2023-03-24T15:11:48.058Z,100190.50
2023-03-24T15:14:23.578Z,100196.19
2023-03-24T15:17:02.999Z,100178.22
2023-03-24T15:19:33.730Z,100182.13
2023-03-24T15:22:08.194Z,100183.50
2023-03-24T15:24:38.798Z,100185.84
2023-03-24T15:27:27.312Z,100175.38
2023-03-24T15:29:59.592Z,100165.66
2023-03-24T15:32:32.812Z,100162.59
2023-03-24T15:35:05.698Z,100159.75
2023-03-24T15:37:40.033Z,100156.19
2023-03-24T15:40:32.808Z,100162.72
2023-03-24T15:43:02.201Z,100182.88
2023-03-24T15:45:37.099Z,100218.69
2023-03-24T15:48:08.785Z,100214.72
2023-03-24T15:50:39.722Z,100225.00
2023-03-24T15:53:27.734Z,100236.13
2023-03-24T15:56:06.595Z,100230.28
2023-03-24T15:58:49.881Z,100214.13
2023-03-24T16:01:27.179Z,100219.66
2023-03-24T16:03:55.711Z,100233.06
2023-03-24T16:06:30.948Z,100232.97
2023-03-24T16:09:03.324Z,100232.22
2023-03-24T16:11:31.369Z,100238.78
2023-03-24T16:13:59.569Z,100243.41
2023-03-24T16:16:31.359Z,100253.00
2023-03-24T16:18:59.605Z,100258.22
2023-03-24T16:21:29.020Z,100256.75
2023-03-24T16:23:58.584Z,100256.53
2023-03-24T16:26:28.897Z,100257.78
2023-03-24T16:29:01.702Z,100281.13
2023-03-24T16:31:33.504Z,100275.88
2023-03-24T16:34:01.552Z,100275.13
2023-03-24T16:36:29.537Z,100284.44
2023-03-24T16:38:58.938Z,100270.34
2023-03-24T16:41:26.955Z,100251.09
2023-03-24T16:43:55.752Z,100249.63
2023-03-24T16:46:33.023Z,100245.34
2023-03-24T16:49:02.089Z,100242.84
2023-03-24T16:54:12.973Z,100241.34
2023-03-24T16:56:41.137Z,100237.88
2023-03-24T16:59:09.709Z,100232.84
2023-03-24T17:01:40.969Z,100237.16
2023-03-24T17:04:14.556Z,100236.81
2023-03-24T17:06:44.450Z,100233.84
2023-03-24T17:09:15.202Z,100237.47
2023-03-24T17:11:45.050Z,100231.34
2023-03-24T17:14:13.210Z,100239.66
2023-03-24T17:16:49.350Z,100235.88
2023-03-24T17:19:19.420Z,100235.56
2023-03-24T17:21:51.275Z,100234.38
2023-03-24T17:24:21.564Z,100234.06
2023-03-24T17:26:49.840Z,100231.28
2023-03-24T17:29:22.821Z,100232.69
2023-03-24T17:31:52.798Z,100231.25
2023-03-24T17:34:22.220Z,100237.97
2023-03-24T17:36:51.429Z,100233.31
2023-03-24T17:39:23.526Z,100239.03
2023-03-24T17:41:57.541Z,100225.78
2023-03-24T17:44:27.289Z,100220.72
2023-03-24T17:46:59.164Z,100231.16
2023-03-24T17:49:29.490Z,100235.19
2023-03-24T17:52:01.839Z,100235.19
2023-03-24T17:54:30.427Z,100230.00
2023-03-24T17:57:01.611Z,100234.56
2023-03-24T17:59:31.509Z,100232.06
2023-03-24T18:02:02.907Z,100242.97
2023-03-24T18:04:31.329Z,100250.31
2023-03-24T18:06:59.509Z,100243.72
2023-03-24T18:09:35.052Z,100239.72
2023-03-24T18:12:05.537Z,100246.00
2023-03-24T18:14:33.952Z,100246.19
2023-03-24T18:17:09.389Z,100243.09
2023-03-24T18:19:38.304Z,100247.16
2023-03-24T18:22:06.599Z,100245.97
2023-03-24T18:24:35.064Z,100246.94
2023-03-24T18:27:10.042Z,100237.75
2023-03-24T18:29:39.553Z,100249.97
2023-03-24T18:32:08.962Z,100250.19
2023-03-24T18:34:38.773Z,100250.06
2023-03-24T18:37:08.191Z,100244.03
2023-03-24T18:39:50.710Z,100235.19
2023-03-24T18:42:20.140Z,100246.59
2023-03-24T18:44:48.199Z,100248.97
2023-03-24T18:47:18.928Z,100256.22
2023-03-24T18:49:47.482Z,100252.69
2023-03-24T18:52:18.091Z,100248.34
2023-03-24T18:55:02.258Z,100243.59
2023-03-24T18:57:31.174Z,100241.91
2023-03-24T19:00:02.550Z,100251.81
2023-03-24T19:02:32.943Z,100241.88
2023-03-24T19:05:02.379Z,100242.72
2023-03-24T19:07:30.313Z,100243.59
2023-03-24T19:10:00.006Z,100233.69
2023-03-24T19:12:30.524Z,100232.69
2023-03-24T19:15:02.784Z,100233.56
2023-03-24T19:17:37.564Z,100230.13
2023-03-24T19:20:07.952Z,100220.31
2023-03-24T19:22:41.691Z,100225.28
2023-03-24T19:25:10.077Z,100234.31
2023-03-24T19:27:39.620Z,100236.50
2023-03-24T19:30:09.272Z,100236.06
2023-03-24T19:32:50.096Z,100231.41
2023-03-24T19:35:21.628Z,100227.22
2023-03-24T19:37:59.518Z,100233.22
2023-03-24T19:40:27.583Z,100249.00
2023-03-24T19:42:57.468Z,100252.88
2023-03-24T19:45:39.524Z,100256.22
2023-03-24T19:48:12.027Z,100244.25
2023-03-24T19:51:12.203Z,100256.34
2023-03-24T19:53:53.405Z,100239.53
2023-03-24T19:56:21.868Z,100244.91
2023-03-24T19:58:51.833Z,100237.56
2023-03-24T20:01:32.366Z,100234.19
2023-03-24T20:04:02.591Z,100230.34
2023-03-24T20:06:33.412Z,100241.53
2023-03-24T20:09:01.600Z,100240.69
2023-03-24T20:11:29.947Z,100233.88
2023-03-24T20:13:58.918Z,100232.38
2023-03-24T20:16:27.403Z,100230.66
2023-03-24T20:19:09.920Z,100232.91
2023-03-24T20:21:42.382Z,100233.44
2023-03-24T20:24:16.613Z,100227.72
2023-03-24T20:26:46.562Z,100228.16
2023-03-24T20:29:16.605Z,100229.66
2023-03-24T20:31:44.916Z,100234.19
2023-03-24T20:34:18.538Z,100211.09
2023-03-24T20:36:47.822Z,100207.56
2023-03-24T20:39:16.253Z,100210.78
2023-03-24T20:41:50.311Z,100201.06
2023-03-24T20:44:20.877Z,100200.66
2023-03-24T20:46:49.039Z,100192.50
2023-03-24T20:49:17.613Z,100195.03
2023-03-24T20:51:47.555Z,100191.81
2023-03-24T20:54:15.343Z,100184.41
2023-03-24T20:56:43.426Z,100192.34
2023-03-24T20:59:13.834Z,100194.78
2023-03-24T21:01:42.212Z,100189.59
2023-03-24T21:04:11.008Z,100195.19
2023-03-24T21:06:39.121Z,100196.50
2023-03-24T21:09:08.695Z,100204.88
2023-03-24T21:11:39.276Z,100200.53
2023-03-24T21:14:07.154Z,100207.50
2023-03-24T21:16:42.722Z,100213.22
2023-03-24T21:19:10.757Z,100219.56
2023-03-24T21:21:40.354Z,100214.38
2023-03-24T21:24:14.768Z,100217.72
2023-03-24T21:26:42.763Z,100206.22
2023-03-24T21:29:12.577Z,100217.75
2023-03-24T21:31:41.760Z,100210.72
2023-03-24T21:34:12.282Z,100209.22
2023-03-24T21:36:40.490Z,100207.56
2023-03-24T21:39:11.936Z,100211.78
2023-03-24T21:41:40.018Z,100200.53
2023-03-24T21:44:09.415Z,100205.22
2023-03-24T21:46:39.700Z,100205.31
2023-03-24T21:49:11.062Z,100207.06
2023-03-24T21:51:39.043Z,100192.91
2023-03-24T21:54:08.794Z,100193.47
2023-03-24T21:56:39.064Z,100196.28
2023-03-24T21:59:11.129Z,100197.09
2023-03-24T22:01:39.731Z,100199.34
2023-03-24T22:04:08.965Z,100198.41
2023-03-24T22:06:38.527Z,100201.13
2023-03-24T22:09:08.296Z,100204.44
2023-03-24T22:11:36.547Z,100194.66
2023-03-24T22:14:05.710Z,100201.00
2023-03-24T22:16:33.514Z,100214.19
2023-03-24T22:19:02.310Z,100196.50
2023-03-24T22:21:32.149Z,100202.31
2023-03-24T22:24:00.261Z,100195.75
2023-03-24T22:26:28.096Z,100194.34
2023-03-24T22:28:57.121Z,100198.09
2023-03-24T22:31:26.622Z,100194.09
2023-03-24T22:33:54.541Z,100196.03
2023-03-24T22:36:22.302Z,100201.00
2023-03-24T22:38:50.074Z,100203.81
2023-03-24T22:41:17.857Z,100213.75
2023-03-24T22:43:46.108Z,100213.06
2023-03-24T22:46:16.343Z,100217.34
2023-03-24T22:48:45.634Z,100208.13
2023-03-24T22:51:19.196Z,100218.22
2023-03-24T22:53:47.990Z,100217.53
2023-03-24T22:56:19.255Z,100222.25
2023-03-24T22:58:47.382Z,100222.66
2023-03-24T23:01:26.726Z,100205.56
2023-03-24T23:03:56.256Z,100201.03
2023-03-24T23:06:25.025Z,100215.84
2023-03-24T23:08:53.424Z,100209.13
2023-03-24T23:11:21.362Z,100203.31
2023-03-24T23:13:50.408Z,100215.28
2023-03-24T23:16:19.367Z,100219.31
2023-03-24T23:18:47.900Z,100209.47
2023-03-24T23:21:18.858Z,100223.53
2023-03-24T23:23:47.207Z,100222.69
2023-03-24T23:26:25.316Z,100217.78
2023-03-24T23:28:55.110Z,100225.22
2023-03-24T23:31:25.455Z,100218.22
2023-03-24T23:33:55.975Z,100228.84
2023-03-24T23:36:29.258Z,100222.88
2023-03-24T23:38:57.132Z,100229.09
2023-03-24T23:41:26.973Z,100224.19
2023-03-24T23:44:03.134Z,100222.25
2023-03-24T23:46:30.970Z,100225.53
2023-03-24T23:48:58.848Z,100231.09
2023-03-24T23:51:28.242Z,100231.75
2023-03-24T23:53:56.265Z,100229.75
2023-03-24T23:56:24.223Z,100236.47
2023-03-24T23:58:52.185Z,100234.91
